createdAt,value
2022-09-15T00:00:00.789Z,16.94
2022-09-15T00:02:27.410Z,16.96
2022-09-15T00:04:54.047Z,16.94
2022-09-15T00:07:20.864Z,16.87
2022-09-15T00:09:47.390Z,16.86
2022-09-15T00:12:13.951Z,16.77
2022-09-15T00:14:40.532Z,16.69
2022-09-15T00:17:07.124Z,16.67
2022-09-15T00:19:33.689Z,16.54
2022-09-15T00:22:00.193Z,16.55
2022-09-15T00:24:26.917Z,16.57
2022-09-15T00:26:53.433Z,16.49
2022-09-15T00:29:20.250Z,16.52
2022-09-15T00:31:46.783Z,16.51
2022-09-15T00:34:14.087Z,16.48
2022-09-15T00:36:40.931Z,16.39
2022-09-15T00:39:07.850Z,16.36
2022-09-15T00:41:34.834Z,16.34
2022-09-15T00:44:16.398Z,16.26
2022-09-15T00:46:58.676Z,16.25
2022-09-15T00:49:36.508Z,16.22
2022-09-15T00:52:17.185Z,16.24
2022-09-15T00:55:08.435Z,16.09
2022-09-15T00:57:51.046Z,16.01
2022-09-15T01:00:20.514Z,15.96
2022-09-15T01:02:48.455Z,15.91
2022-09-15T01:05:19.078Z,15.90
2022-09-15T01:08:03.092Z,15.86
2022-09-15T01:10:34.128Z,15.84
2022-09-15T01:13:04.371Z,15.78
2022-09-15T01:15:52.912Z,15.73
2022-09-15T01:18:43.074Z,15.75
2022-09-15T01:21:18.096Z,15.68
2022-09-15T01:24:23.916Z,15.64
2022-09-15T01:26:59.060Z,15.70
2022-09-15T01:29:45.650Z,15.63
2022-09-15T01:32:52.427Z,15.64
2022-09-15T01:35:37.006Z,15.60
2022-09-15T01:38:22.897Z,15.58
2022-09-15T01:41:25.464Z,15.48
2022-09-15T01:43:59.716Z,15.43
2022-09-15T01:46:30.461Z,15.35
2022-09-15T01:49:00.790Z,15.39
2022-09-15T01:51:28.531Z,15.27
2022-09-15T01:53:56.451Z,15.28
2022-09-15T01:56:23.038Z,15.40
2022-09-15T01:58:50.963Z,15.31
2022-09-15T02:01:28.148Z,15.29
2022-09-15T02:04:02.123Z,15.19
2022-09-15T02:06:37.378Z,15.18
2022-09-15T02:09:18.059Z,15.13
2022-09-15T02:12:02.687Z,15.14
2022-09-15T02:14:35.334Z,15.09
2022-09-15T02:17:03.003Z,15.04
2022-09-15T02:19:34.301Z,15.05
2022-09-15T02:22:10.736Z,15.02
2022-09-15T02:24:44.424Z,15.00
2022-09-15T02:27:17.840Z,14.98
2022-09-15T02:29:47.626Z,14.98
2022-09-15T02:32:17.612Z,14.98
2022-09-15T02:34:47.873Z,14.97
2022-09-15T02:37:15.140Z,14.98
2022-09-15T02:39:48.576Z,14.96
2022-09-15T02:42:24.608Z,14.93
2022-09-15T02:44:51.464Z,14.90
2022-09-15T02:47:18.285Z,14.95
2022-09-15T02:49:44.826Z,14.88
2022-09-15T02:52:11.613Z,14.83
2022-09-15T02:54:38.277Z,14.86
2022-09-15T02:57:05.150Z,14.83
2022-09-15T02:59:51.659Z,14.75
2022-09-15T03:02:20.623Z,14.73
2022-09-15T03:04:48.270Z,14.78
2022-09-15T03:07:15.184Z,14.73
2022-09-15T03:09:42.052Z,14.73
2022-09-15T03:12:09.141Z,14.66
2022-09-15T03:14:35.674Z,14.70
2022-09-15T03:17:03.262Z,14.70
2022-09-15T03:19:31.056Z,14.72
2022-09-15T03:21:57.732Z,14.67
2022-09-15T03:24:24.395Z,14.65
2022-09-15T03:26:50.929Z,14.72
2022-09-15T03:29:17.585Z,14.65
2022-09-15T03:31:44.192Z,14.69
2022-09-15T03:34:10.882Z,14.68
2022-09-15T03:36:41.268Z,14.71
2022-09-15T03:39:07.826Z,14.66
2022-09-15T03:41:34.373Z,14.54
2022-09-15T03:44:01.039Z,14.58
2022-09-15T03:46:27.978Z,14.57
2022-09-15T03:48:54.512Z,14.49
2022-09-15T03:51:21.918Z,14.41
2022-09-15T03:53:48.678Z,14.38
2022-09-15T03:56:33.009Z,14.37
2022-09-15T03:59:02.030Z,14.38
2022-09-15T04:01:30.325Z,14.38
2022-09-15T04:03:57.967Z,14.34
2022-09-15T04:06:26.613Z,14.41
2022-09-15T04:08:53.510Z,14.31
2022-09-15T04:11:21.969Z,14.29
2022-09-15T04:13:48.962Z,14.28
2022-09-15T04:16:18.476Z,14.30
2022-09-15T04:18:45.369Z,14.25
2022-09-15T04:21:16.462Z,14.31
2022-09-15T04:23:44.307Z,14.27
2022-09-15T04:26:31.274Z,14.18
2022-09-15T04:29:03.173Z,14.26
2022-09-15T04:31:30.860Z,14.24
2022-09-15T04:33:57.485Z,14.19
2022-09-15T04:36:26.081Z,14.10
2022-09-15T04:38:53.199Z,14.10
2022-09-15T04:41:20.926Z,14.04
2022-09-15T04:43:47.695Z,13.97
2022-09-15T04:46:15.193Z,13.95
2022-09-15T04:48:42.637Z,14.01
2022-09-15T04:51:13.037Z,14.00
2022-09-15T04:53:40.051Z,13.95
2022-09-15T04:56:12.436Z,13.87
2022-09-15T04:58:40.758Z,13.93
2022-09-15T05:01:15.893Z,13.93
2022-09-15T05:03:43.032Z,13.79
2022-09-15T05:06:11.788Z,13.84
2022-09-15T05:08:38.807Z,13.82
2022-09-15T05:11:12.669Z,13.78
2022-09-15T05:13:39.855Z,13.87
2022-09-15T05:16:09.064Z,13.80
2022-09-15T05:18:35.919Z,13.81
2022-09-15T05:21:03.760Z,13.78
2022-09-15T05:23:31.282Z,13.75
2022-09-15T05:25:59.204Z,13.66
2022-09-15T05:28:26.640Z,13.63
2022-09-15T05:30:54.304Z,13.56
2022-09-15T05:33:23.063Z,13.70
2022-09-15T05:35:53.363Z,13.63
2022-09-15T05:38:20.321Z,13.67
2022-09-15T05:40:47.241Z,13.61
2022-09-15T05:43:14.921Z,13.72
2022-09-15T05:45:42.790Z,13.74
2022-09-15T05:48:10.585Z,13.72
2022-09-15T05:50:38.731Z,13.80
2022-09-15T05:53:07.466Z,13.80
2022-09-15T05:55:38.150Z,13.92
2022-09-15T05:58:04.735Z,13.92
2022-09-15T06:00:31.315Z,14.04
2022-09-15T06:02:57.901Z,14.03
2022-09-15T06:05:24.573Z,14.03
2022-09-15T06:07:55.224Z,14.03
2022-09-15T06:10:25.201Z,13.98
2022-09-15T06:12:55.926Z,14.02
2022-09-15T06:15:23.290Z,13.99
2022-09-15T06:17:50.023Z,13.92
2022-09-15T06:20:17.082Z,13.92
2022-09-15T06:22:43.708Z,14.05
2022-09-15T06:25:11.798Z,13.89
2022-09-15T06:27:38.343Z,13.89
2022-09-15T06:30:05.501Z,13.76
2022-09-15T06:32:32.103Z,13.91
2022-09-15T06:34:58.788Z,13.79
2022-09-15T06:37:25.779Z,13.77
2022-09-15T06:39:52.385Z,13.82
2022-09-15T06:42:18.975Z,13.76
2022-09-15T06:44:47.896Z,13.95
2022-09-15T06:47:15.552Z,13.97
2022-09-15T06:49:42.390Z,14.07
2022-09-15T06:52:08.965Z,14.16
2022-09-15T06:54:35.658Z,14.17
2022-09-15T06:57:02.217Z,14.29
2022-09-15T06:59:28.932Z,14.32
2022-09-15T07:01:56.088Z,14.39
2022-09-15T07:04:22.707Z,14.34
2022-09-15T07:06:50.644Z,14.30
2022-09-15T07:09:17.388Z,14.34
2022-09-15T07:11:44.114Z,14.44
2022-09-15T07:14:11.421Z,14.50
2022-09-15T07:16:38.382Z,14.60
2022-09-15T07:19:06.013Z,14.74
2022-09-15T07:21:34.055Z,14.80
2022-09-15T07:24:03.843Z,14.91
2022-09-15T07:26:33.926Z,14.94
2022-09-15T07:29:04.465Z,15.00
2022-09-15T07:31:33.904Z,15.33
2022-09-15T07:34:01.216Z,15.46
2022-09-15T07:36:28.251Z,15.34
2022-09-15T07:38:54.865Z,15.20
2022-09-15T07:41:27.257Z,15.38
2022-09-15T07:43:56.039Z,15.77
2022-09-15T07:46:24.952Z,15.89
2022-09-15T07:48:53.317Z,15.79
2022-09-15T07:51:20.303Z,15.85
2022-09-15T07:53:48.394Z,15.86
2022-09-15T07:56:18.477Z,15.65
2022-09-15T07:58:45.961Z,15.77
2022-09-15T08:01:14.914Z,15.79
2022-09-15T08:03:46.762Z,15.87
2022-09-15T08:06:14.090Z,15.73
2022-09-15T08:08:46.792Z,15.90
2022-09-15T08:11:19.037Z,15.81
2022-09-15T08:13:50.500Z,15.78
2022-09-15T08:16:23.303Z,15.99
2022-09-15T08:18:52.507Z,16.31
2022-09-15T08:21:20.978Z,16.36
2022-09-15T08:23:56.425Z,16.64
2022-09-15T08:26:24.005Z,16.79
2022-09-15T08:28:50.581Z,16.51
2022-09-15T08:31:17.987Z,16.77
2022-09-15T08:33:52.025Z,16.71
2022-09-15T08:36:19.284Z,16.87
2022-09-15T08:38:46.844Z,17.09
2022-09-15T08:41:22.759Z,17.24
2022-09-15T08:44:19.614Z,16.94
2022-09-15T08:46:56.260Z,17.03
2022-09-15T08:49:52.075Z,17.19
2022-09-15T08:52:38.688Z,17.53
2022-09-15T08:55:13.740Z,17.84
2022-09-15T08:57:40.658Z,17.59
2022-09-15T09:00:14.502Z,17.91
2022-09-15T09:03:05.369Z,17.65
2022-09-15T09:05:54.214Z,17.60
2022-09-15T09:08:51.001Z,17.31
2022-09-15T09:11:45.670Z,17.35
2022-09-15T09:14:32.833Z,17.43
2022-09-15T09:17:14.744Z,17.65
2022-09-15T09:20:02.096Z,17.49
2022-09-15T09:22:34.572Z,17.54
2022-09-15T09:25:11.564Z,17.51
2022-09-15T09:27:43.432Z,17.58
2022-09-15T09:30:22.574Z,17.79
2022-09-15T09:32:55.202Z,17.94
2022-09-15T09:35:43.160Z,18.06
2022-09-15T09:38:11.377Z,17.92
2022-09-15T09:40:41.179Z,17.42
2022-09-15T09:43:08.506Z,17.38
2022-09-15T09:45:35.167Z,17.37
2022-09-15T09:48:10.099Z,17.43
2022-09-15T09:50:45.392Z,17.45
2022-09-15T09:53:31.177Z,17.59
2022-09-15T09:56:27.456Z,18.01
2022-09-15T09:58:54.644Z,18.33
2022-09-15T10:01:25.332Z,18.32
2022-09-15T10:04:13.388Z,18.67
2022-09-15T10:06:41.330Z,19.13
2022-09-15T10:09:14.109Z,19.23
2022-09-15T10:11:49.841Z,19.28
2022-09-15T10:14:20.283Z,19.27
2022-09-15T10:17:11.856Z,18.59
2022-09-15T10:19:49.617Z,18.53
2022-09-15T10:22:25.109Z,18.81
2022-09-15T10:24:52.033Z,18.88
2022-09-15T10:27:37.078Z,18.94
2022-09-15T10:30:12.938Z,18.75
2022-09-15T10:32:40.295Z,18.89
2022-09-15T10:35:21.129Z,18.95
2022-09-15T10:38:12.015Z,19.24
2022-09-15T10:40:43.902Z,19.20
2022-09-15T10:43:22.331Z,19.01
2022-09-15T10:45:55.838Z,18.44
2022-09-15T10:48:46.387Z,18.30
2022-09-15T10:51:37.838Z,18.21
2022-09-15T10:54:31.742Z,18.05
2022-09-15T10:57:24.272Z,17.98
2022-09-15T11:00:07.009Z,17.94
2022-09-15T11:02:48.468Z,17.79
2022-09-15T11:05:43.259Z,17.88
2022-09-15T11:08:15.891Z,17.96
2022-09-15T11:10:50.510Z,17.95
2022-09-15T11:13:27.305Z,18.00
2022-09-15T11:16:12.923Z,17.79
2022-09-15T11:19:01.282Z,17.76
2022-09-15T11:21:36.698Z,17.75
2022-09-15T11:24:40.580Z,17.99
2022-09-15T11:27:19.888Z,17.90
2022-09-15T11:30:00.115Z,17.91
2022-09-15T11:32:32.534Z,18.17
2022-09-15T11:35:29.874Z,18.15
2022-09-15T11:38:01.409Z,18.13
2022-09-15T11:40:36.086Z,18.19
2022-09-15T11:43:18.487Z,18.15
2022-09-15T11:45:49.778Z,18.34
2022-09-15T11:48:22.783Z,18.20
2022-09-15T11:50:53.568Z,18.44
2022-09-15T11:53:26.040Z,18.58
2022-09-15T11:55:58.526Z,19.14
2022-09-15T11:58:50.322Z,19.38
2022-09-15T12:01:22.548Z,19.50
2022-09-15T12:03:56.208Z,19.56
2022-09-15T12:06:32.163Z,19.22
2022-09-15T12:09:04.710Z,19.03
2022-09-15T12:11:35.433Z,18.95
2022-09-15T12:14:05.805Z,19.24
2022-09-15T12:16:33.934Z,19.28
2022-09-15T12:19:19.061Z,19.30
2022-09-15T12:22:01.702Z,19.33
2022-09-15T12:24:35.485Z,19.15
2022-09-15T12:27:02.484Z,19.15
2022-09-15T12:29:41.214Z,19.07
2022-09-15T12:32:28.779Z,19.40
2022-09-15T12:34:57.057Z,19.48
2022-09-15T12:37:25.606Z,19.38
2022-09-15T12:39:53.204Z,19.13
2022-09-15T12:42:21.849Z,19.18
2022-09-15T12:44:53.293Z,19.36
2022-09-15T12:47:19.797Z,19.35
2022-09-15T12:49:49.412Z,19.38
2022-09-15T12:52:17.351Z,19.43
2022-09-15T12:54:50.831Z,19.26
2022-09-15T12:57:31.403Z,19.24
2022-09-15T13:00:20.046Z,19.01
2022-09-15T13:02:49.099Z,19.01
2022-09-15T13:05:41.402Z,18.95
2022-09-15T13:08:15.293Z,18.71
2022-09-15T13:10:59.404Z,18.66
2022-09-15T13:13:34.849Z,18.65
2022-09-15T13:16:03.040Z,18.87
2022-09-15T13:18:31.040Z,18.82
2022-09-15T13:21:02.946Z,18.88
2022-09-15T13:23:36.936Z,19.01
2022-09-15T13:26:06.905Z,19.90
2022-09-15T13:28:34.187Z,19.93
2022-09-15T13:31:25.758Z,19.61
2022-09-15T13:40:06.733Z,20.17
2022-09-15T13:42:51.926Z,19.99
2022-09-15T13:45:46.577Z,19.91
2022-09-15T13:48:31.666Z,20.40
2022-09-15T13:51:06.495Z,19.92
2022-09-15T13:53:49.922Z,20.26
2022-09-15T13:56:25.087Z,19.92
2022-09-15T13:58:56.379Z,19.74
2022-09-15T14:01:28.195Z,19.70
2022-09-15T14:04:25.037Z,19.89
2022-09-15T14:06:57.166Z,20.10
2022-09-15T14:09:33.181Z,20.19
2022-09-15T14:12:03.852Z,20.89
2022-09-15T14:14:40.298Z,21.03
2022-09-15T14:17:19.361Z,20.55
2022-09-15T14:19:49.079Z,20.12
2022-09-15T14:22:18.847Z,20.55
2022-09-15T14:24:45.385Z,20.51
2022-09-15T14:27:13.089Z,20.14
2022-09-15T14:29:43.635Z,20.71
2022-09-15T14:32:14.924Z,21.05
2022-09-15T14:34:42.459Z,20.82
2022-09-15T14:37:19.934Z,20.57
2022-09-15T14:39:51.532Z,20.52
2022-09-15T14:42:29.606Z,20.14
2022-09-15T14:48:02.554Z,19.98
2022-09-15T14:50:33.272Z,20.36
2022-09-15T14:53:00.101Z,20.25
2022-09-15T14:55:32.984Z,20.22
2022-09-15T14:58:02.141Z,19.69
2022-09-15T15:00:41.666Z,19.76
2022-09-15T15:03:21.240Z,19.72
2022-09-15T15:06:02.476Z,19.94
2022-09-15T15:08:54.729Z,19.76
2022-09-15T15:11:22.466Z,19.73
2022-09-15T15:13:52.175Z,19.66
2022-09-15T15:16:22.897Z,19.62
2022-09-15T15:18:51.448Z,19.39
2022-09-15T15:21:45.277Z,19.32
2022-09-15T15:24:14.590Z,19.62
2022-09-15T15:26:43.108Z,19.38
2022-09-15T15:29:38.285Z,19.29
2022-09-15T15:32:13.456Z,18.92
2022-09-15T15:34:40.581Z,18.99
2022-09-15T15:37:21.356Z,19.01
2022-09-15T15:39:48.023Z,18.85
2022-09-15T15:42:16.134Z,18.43
2022-09-15T15:45:19.795Z,18.52
2022-09-15T15:47:46.353Z,18.55
2022-09-15T15:50:19.110Z,18.36
2022-09-15T15:52:45.673Z,18.34
2022-09-15T15:55:20.600Z,18.24
2022-09-15T15:57:53.074Z,18.01
2022-09-15T16:00:31.674Z,18.12
2022-09-15T16:02:58.348Z,18.04
2022-09-15T16:05:29.421Z,17.96
2022-09-15T16:07:59.411Z,17.90
2022-09-15T16:10:30.129Z,17.88
2022-09-15T16:12:56.708Z,17.76
2022-09-15T16:15:23.352Z,17.67
2022-09-15T16:17:49.904Z,17.73
2022-09-15T16:20:16.984Z,17.63
2022-09-15T16:22:43.750Z,17.67
2022-09-15T16:25:29.790Z,17.60
2022-09-15T16:27:56.572Z,17.61
2022-09-15T16:30:24.594Z,17.54
2022-09-15T16:32:51.141Z,17.44
2022-09-15T16:35:30.765Z,17.38
2022-09-15T16:37:57.419Z,17.36
2022-09-15T16:40:24.209Z,17.32
2022-09-15T16:42:50.836Z,17.28
2022-09-15T16:45:29.834Z,17.22
2022-09-15T16:47:56.441Z,17.18
2022-09-15T16:50:23.037Z,17.07
2022-09-15T16:52:50.490Z,16.96
2022-09-15T16:55:41.245Z,16.94
2022-09-15T16:58:07.841Z,16.86
2022-09-15T17:00:37.953Z,16.71
2022-09-15T17:03:06.270Z,16.47
2022-09-15T17:05:36.098Z,16.37
2022-09-15T17:08:04.293Z,16.28
2022-09-15T17:10:31.515Z,16.08
2022-09-15T17:12:58.631Z,15.89
2022-09-15T17:15:26.598Z,15.80
2022-09-15T17:17:53.658Z,15.76
2022-09-15T17:20:20.695Z,15.75
2022-09-15T17:22:48.195Z,15.72
2022-09-15T17:25:20.868Z,15.70
2022-09-15T17:27:48.862Z,15.68
2022-09-15T17:30:16.880Z,15.77
2022-09-15T17:32:43.456Z,15.70
2022-09-15T17:35:19.846Z,15.72
2022-09-15T17:37:46.612Z,15.61
2022-09-15T17:40:14.787Z,15.29
2022-09-15T17:42:42.713Z,15.48
2022-09-15T17:45:19.879Z,15.33
2022-09-15T17:47:46.981Z,15.27
2022-09-15T17:50:14.491Z,15.05
2022-09-15T17:52:41.324Z,15.14
2022-09-15T17:55:20.203Z,15.09
2022-09-15T17:57:48.173Z,14.99
2022-09-15T18:00:16.897Z,14.88
2022-09-15T18:02:48.737Z,14.90
2022-09-15T18:05:18.482Z,14.97
2022-09-15T18:07:45.016Z,14.83
2022-09-15T18:10:11.613Z,14.94
2022-09-15T18:12:38.257Z,14.83
2022-09-15T18:15:05.318Z,14.86
2022-09-15T18:17:32.060Z,14.70
2022-09-15T18:19:58.747Z,14.65
2022-09-15T18:22:25.416Z,14.79
2022-09-15T18:24:52.036Z,14.76
2022-09-15T18:27:18.577Z,14.78
2022-09-15T18:29:45.119Z,14.77
2022-09-15T18:32:11.640Z,14.75
2022-09-15T18:34:38.262Z,14.72
2022-09-15T18:37:04.865Z,14.73
2022-09-15T18:39:31.495Z,14.63
2022-09-15T18:41:58.048Z,14.72
2022-09-15T18:44:24.851Z,14.69
2022-09-15T18:46:51.603Z,14.67
2022-09-15T18:49:18.171Z,14.51
2022-09-15T18:51:52.243Z,14.53
2022-09-15T18:54:19.021Z,14.46
2022-09-15T18:56:45.571Z,14.46
2022-09-15T18:59:14.534Z,14.55
2022-09-15T19:01:44.108Z,14.47
2022-09-15T19:04:10.866Z,14.66
2022-09-15T19:06:37.649Z,14.54
2022-09-15T19:09:04.216Z,14.54
2022-09-15T19:11:30.806Z,14.49
2022-09-15T19:13:57.819Z,14.61
2022-09-15T19:16:34.695Z,14.51
2022-09-15T19:19:11.666Z,14.42
2022-09-15T19:21:38.217Z,14.42
2022-09-15T19:24:04.792Z,14.55
2022-09-15T19:26:31.378Z,14.60
2022-09-15T19:28:58.475Z,14.66
2022-09-15T19:31:25.889Z,14.70
2022-09-15T19:33:52.829Z,14.58
2022-09-15T19:36:29.529Z,14.59
2022-09-15T19:38:57.345Z,14.52
2022-09-15T19:41:24.375Z,14.53
2022-09-15T19:43:50.957Z,14.58
2022-09-15T19:46:21.272Z,14.49
2022-09-15T19:48:50.024Z,14.65
2022-09-15T19:51:17.800Z,14.44
2022-09-15T19:53:45.251Z,14.51
2022-09-15T19:56:17.698Z,14.48
2022-09-15T19:58:45.152Z,14.51
2022-09-15T20:01:11.817Z,14.34
2022-09-15T20:03:39.216Z,14.38
2022-09-15T20:06:07.901Z,14.34
2022-09-15T20:08:36.184Z,14.42
2022-09-15T20:11:07.115Z,14.36
2022-09-15T20:13:39.257Z,14.31
2022-09-15T20:16:06.191Z,14.44
2022-09-15T20:18:33.614Z,14.44
2022-09-15T20:21:02.807Z,14.31
2022-09-15T20:23:29.312Z,14.27
2022-09-15T20:26:01.185Z,14.27
2022-09-15T20:28:29.434Z,14.29
2022-09-15T20:31:05.108Z,14.26
2022-09-15T20:33:33.676Z,14.30
2022-09-15T20:36:01.881Z,14.21
2022-09-15T20:38:28.517Z,14.26
2022-09-15T20:40:55.733Z,14.17
2022-09-15T20:43:23.191Z,14.16
2022-09-15T20:46:00.537Z,14.17
2022-09-15T20:48:29.160Z,14.06
2022-09-15T20:51:08.744Z,14.15
2022-09-15T20:53:35.617Z,14.07
2022-09-15T20:56:02.754Z,14.14
2022-09-15T20:58:29.640Z,14.11
2022-09-15T21:01:10.949Z,14.06
2022-09-15T21:03:39.214Z,13.97
2022-09-15T21:06:13.474Z,13.98
2022-09-15T21:08:40.432Z,14.05
2022-09-15T21:11:11.641Z,13.99
2022-09-15T21:13:40.472Z,13.98
2022-09-15T21:16:09.918Z,13.99
2022-09-15T21:18:39.219Z,13.89
2022-09-15T21:21:23.101Z,13.94
2022-09-15T21:23:52.620Z,13.95
2022-09-15T21:26:21.743Z,13.95
2022-09-15T21:28:48.820Z,14.04
2022-09-15T21:31:29.983Z,13.99
2022-09-15T21:33:57.723Z,13.91
2022-09-15T21:36:30.144Z,13.92
2022-09-15T21:38:58.374Z,14.00
2022-09-15T21:41:27.146Z,13.99
2022-09-15T21:43:55.563Z,14.01
2022-09-15T21:46:25.098Z,14.06
2022-09-15T21:48:51.870Z,13.87
2022-09-15T21:51:24.981Z,13.97
2022-09-15T21:53:56.380Z,14.05
2022-09-15T21:56:23.997Z,13.88
2022-09-15T21:58:50.915Z,13.86
2022-09-15T22:01:23.532Z,13.87
2022-09-15T22:03:51.575Z,13.97
2022-09-15T22:06:19.932Z,13.94
2022-09-15T22:08:46.880Z,13.77
2022-09-15T22:11:13.515Z,13.80
2022-09-15T22:13:43.616Z,13.72
2022-09-15T22:16:16.642Z,13.86
2022-09-15T22:18:44.287Z,13.74
2022-09-15T22:21:19.275Z,13.79
2022-09-15T22:23:47.843Z,13.73
2022-09-15T22:26:17.315Z,13.70
2022-09-15T22:28:44.220Z,13.65
2022-09-15T22:31:13.401Z,13.56
2022-09-15T22:33:41.310Z,13.53
2022-09-15T22:36:16.705Z,13.56
2022-09-15T22:38:43.987Z,13.61
2022-09-15T22:41:13.529Z,13.66
2022-09-15T22:43:41.719Z,13.64
2022-09-15T22:46:08.952Z,13.55
2022-09-15T22:48:39.645Z,13.56
2022-09-15T22:51:09.417Z,13.41
2022-09-15T22:53:35.964Z,13.37
2022-09-15T22:56:11.464Z,13.36
2022-09-15T22:58:42.063Z,13.29
2022-09-15T23:01:14.569Z,13.23
2022-09-15T23:03:41.886Z,13.21
2022-09-15T23:06:08.616Z,13.23
2022-09-15T23:08:36.114Z,13.27
2022-09-15T23:11:08.578Z,13.28
2022-09-15T23:13:35.261Z,13.26
2022-09-15T23:16:02.523Z,13.14
2022-09-15T23:18:29.709Z,13.19
2022-09-15T23:20:58.375Z,13.11
2022-09-15T23:23:26.018Z,13.07
2022-09-15T23:25:53.004Z,13.01
2022-09-15T23:28:19.961Z,12.84
2022-09-15T23:30:51.725Z,12.87
2022-09-15T23:33:19.018Z,12.85
2022-09-15T23:35:46.471Z,12.76
2022-09-15T23:38:13.701Z,12.81
2022-09-15T23:40:43.866Z,12.77
2022-09-15T23:43:11.557Z,12.90
2022-09-15T23:45:38.506Z,12.84
2022-09-15T23:48:06.863Z,12.76
2022-09-15T23:50:34.093Z,12.76
2022-09-15T23:53:01.132Z,12.74
2022-09-15T23:55:28.021Z,12.81
2022-09-15T23:57:54.943Z,12.83
